sensor_id;sensor_type;location;lat;lon;timestamp;P1;durP1;ratioP1;P2;durP2;ratioP2
37131;SDS011;23035;50.032;21.978;2023-07-02T00:00:20;16.90;;;11.70;;
37131;SDS011;23035;50.032;21.978;2023-07-02T00:05:43;19.27;;;12.55;;
37131;SDS011;23035;50.032;21.978;2023-07-02T00:10:48;18.67;;;12.05;;
37131;SDS011;23035;50.032;21.978;2023-07-02T00:15:53;21.27;;;12.50;;
37131;SDS011;23035;50.032;21.978;2023-07-02T00:20:57;16.48;;;12.95;;
37131;SDS011;23035;50.032;21.978;2023-07-02T00:26:01;18.27;;;13.20;;
37131;SDS011;23035;50.032;21.978;2023-07-02T00:31:07;16.45;;;13.27;;
37131;SDS011;23035;50.032;21.978;2023-07-02T00:36:11;19.02;;;12.73;;
37131;SDS011;23035;50.032;21.978;2023-07-02T00:41:16;19.15;;;12.80;;
37131;SDS011;23035;50.032;21.978;2023-07-02T00:46:22;15.52;;;12.63;;
37131;SDS011;23035;50.032;21.978;2023-07-02T00:51:28;14.48;;;12.00;;
37131;SDS011;23035;50.032;21.978;2023-07-02T00:56:31;16.55;;;11.88;;
37131;SDS011;23035;50.032;21.978;2023-07-02T01:01:37;17.33;;;12.60;;
37131;SDS011;23035;50.032;21.978;2023-07-02T01:06:42;16.27;;;12.13;;
37131;SDS011;23035;50.032;21.978;2023-07-02T01:11:47;13.18;;;10.90;;
37131;SDS011;23035;50.032;21.978;2023-07-02T01:16:57;15.15;;;12.23;;
37131;SDS011;23035;50.032;21.978;2023-07-02T01:22:07;16.27;;;12.18;;
37131;SDS011;23035;50.032;21.978;2023-07-02T01:27:11;16.52;;;11.85;;
37131;SDS011;23035;50.032;21.978;2023-07-02T01:32:17;19.10;;;14.45;;
37131;SDS011;23035;50.032;21.978;2023-07-02T01:37:22;19.60;;;13.25;;
37131;SDS011;23035;50.032;21.978;2023-07-02T01:42:26;17.38;;;13.75;;
37131;SDS011;23035;50.032;21.978;2023-07-02T01:47:30;16.40;;;13.02;;
37131;SDS011;23035;50.032;21.978;2023-07-02T01:52:35;17.90;;;12.73;;
37131;SDS011;23035;50.032;21.978;2023-07-02T02:02:43;23.05;;;12.57;;
37131;SDS011;23035;50.032;21.978;2023-07-02T02:07:49;17.02;;;13.30;;
37131;SDS011;23035;50.032;21.978;2023-07-02T02:12:53;18.33;;;12.00;;
37131;SDS011;23035;50.032;21.978;2023-07-02T02:17:57;18.13;;;12.98;;
37131;SDS011;23035;50.032;21.978;2023-07-02T02:23:02;15.77;;;12.80;;
37131;SDS011;23035;50.032;21.978;2023-07-02T02:28:06;16.15;;;12.65;;
37131;SDS011;23035;50.032;21.978;2023-07-02T02:33:10;18.52;;;12.32;;
37131;SDS011;23035;50.032;21.978;2023-07-02T02:38:16;20.05;;;12.52;;
37131;SDS011;23035;50.032;21.978;2023-07-02T02:43:21;15.88;;;12.02;;
37131;SDS011;23035;50.032;21.978;2023-07-02T02:48:26;18.35;;;10.93;;
37131;SDS011;23035;50.032;21.978;2023-07-02T02:53:31;13.90;;;9.63;;
37131;SDS011;23035;50.032;21.978;2023-07-02T03:03:39;22.65;;;11.30;;
37131;SDS011;23035;50.032;21.978;2023-07-02T03:08:50;64.63;;;43.75;;
37131;SDS011;23035;50.032;21.978;2023-07-02T03:18:58;24.33;;;16.98;;
37131;SDS011;23035;50.032;21.978;2023-07-02T03:24:04;17.20;;;10.90;;
37131;SDS011;23035;50.032;21.978;2023-07-02T03:29:08;15.02;;;10.73;;
37131;SDS011;23035;50.032;21.978;2023-07-02T03:34:13;12.97;;;10.90;;
37131;SDS011;23035;50.032;21.978;2023-07-02T03:39:18;16.48;;;10.55;;
37131;SDS011;23035;50.032;21.978;2023-07-02T03:44:22;12.75;;;11.40;;
37131;SDS011;23035;50.032;21.978;2023-07-02T03:49:26;14.15;;;12.63;;
37131;SDS011;23035;50.032;21.978;2023-07-02T03:59:36;14.38;;;11.55;;
37131;SDS011;23035;50.032;21.978;2023-07-02T04:04:40;15.50;;;10.25;;
37131;SDS011;23035;50.032;21.978;2023-07-02T04:09:46;15.35;;;12.07;;
37131;SDS011;23035;50.032;21.978;2023-07-02T04:14:50;14.85;;;10.95;;
37131;SDS011;23035;50.032;21.978;2023-07-02T04:19:54;14.48;;;11.05;;
37131;SDS011;23035;50.032;21.978;2023-07-02T04:25:00;16.73;;;10.60;;
37131;SDS011;23035;50.032;21.978;2023-07-02T04:30:19;13.25;;;11.25;;
37131;SDS011;23035;50.032;21.978;2023-07-02T04:35:24;14.35;;;11.48;;
37131;SDS011;23035;50.032;21.978;2023-07-02T04:40:31;13.93;;;11.25;;
37131;SDS011;23035;50.032;21.978;2023-07-02T04:45:35;16.77;;;10.18;;
37131;SDS011;23035;50.032;21.978;2023-07-02T04:50:39;14.60;;;11.10;;
37131;SDS011;23035;50.032;21.978;2023-07-02T04:55:46;13.32;;;10.15;;
37131;SDS011;23035;50.032;21.978;2023-07-02T05:00:51;14.27;;;9.85;;
37131;SDS011;23035;50.032;21.978;2023-07-02T05:05:54;13.32;;;10.52;;
37131;SDS011;23035;50.032;21.978;2023-07-02T05:10:59;13.40;;;10.05;;
37131;SDS011;23035;50.032;21.978;2023-07-02T05:16:03;11.02;;;9.77;;
37131;SDS011;23035;50.032;21.978;2023-07-02T05:21:07;14.15;;;10.65;;
37131;SDS011;23035;50.032;21.978;2023-07-02T05:26:13;13.40;;;9.75;;
37131;SDS011;23035;50.032;21.978;2023-07-02T05:36:20;11.60;;;9.52;;
37131;SDS011;23035;50.032;21.978;2023-07-02T05:41:25;12.45;;;10.45;;
37131;SDS011;23035;50.032;21.978;2023-07-02T05:46:33;11.57;;;9.70;;
37131;SDS011;23035;50.032;21.978;2023-07-02T05:51:37;14.25;;;9.13;;
37131;SDS011;23035;50.032;21.978;2023-07-02T05:56:42;12.52;;;8.75;;
37131;SDS011;23035;50.032;21.978;2023-07-02T06:01:46;11.15;;;9.20;;
37131;SDS011;23035;50.032;21.978;2023-07-02T06:06:50;16.38;;;9.32;;
37131;SDS011;23035;50.032;21.978;2023-07-02T06:11:55;13.65;;;9.00;;
37131;SDS011;23035;50.032;21.978;2023-07-02T06:16:59;16.20;;;8.68;;
37131;SDS011;23035;50.032;21.978;2023-07-02T06:22:08;18.83;;;9.00;;
37131;SDS011;23035;50.032;21.978;2023-07-02T06:27:13;13.43;;;8.95;;
37131;SDS011;23035;50.032;21.978;2023-07-02T06:37:21;11.32;;;8.90;;
37131;SDS011;23035;50.032;21.978;2023-07-02T06:42:26;13.15;;;9.55;;
37131;SDS011;23035;50.032;21.978;2023-07-02T06:47:33;11.00;;;9.10;;
37131;SDS011;23035;50.032;21.978;2023-07-02T06:52:36;12.18;;;9.02;;
37131;SDS011;23035;50.032;21.978;2023-07-02T06:57:45;12.32;;;8.80;;
37131;SDS011;23035;50.032;21.978;2023-07-02T07:02:49;10.45;;;8.70;;
37131;SDS011;23035;50.032;21.978;2023-07-02T07:07:53;12.18;;;10.13;;
37131;SDS011;23035;50.032;21.978;2023-07-02T07:13:00;12.40;;;8.85;;
37131;SDS011;23035;50.032;21.978;2023-07-02T07:18:08;11.35;;;8.70;;
37131;SDS011;23035;50.032;21.978;2023-07-02T07:23:12;11.68;;;8.25;;
37131;SDS011;23035;50.032;21.978;2023-07-02T07:28:19;12.40;;;8.80;;
37131;SDS011;23035;50.032;21.978;2023-07-02T07:33:23;12.90;;;9.32;;
37131;SDS011;23035;50.032;21.978;2023-07-02T07:38:27;12.32;;;8.85;;
37131;SDS011;23035;50.032;21.978;2023-07-02T07:43:32;10.57;;;8.50;;
37131;SDS011;23035;50.032;21.978;2023-07-02T07:48:37;11.63;;;7.65;;
37131;SDS011;23035;50.032;21.978;2023-07-02T07:53:41;11.45;;;7.60;;
37131;SDS011;23035;50.032;21.978;2023-07-02T07:58:46;9.07;;;7.07;;
37131;SDS011;23035;50.032;21.978;2023-07-02T08:03:50;11.82;;;8.02;;
37131;SDS011;23035;50.032;21.978;2023-07-02T08:08:54;9.13;;;6.85;;
37131;SDS011;23035;50.032;21.978;2023-07-02T08:13:59;8.88;;;6.97;;
37131;SDS011;23035;50.032;21.978;2023-07-02T08:19:03;11.07;;;7.32;;
37131;SDS011;23035;50.032;21.978;2023-07-02T08:24:07;9.37;;;7.17;;
37131;SDS011;23035;50.032;21.978;2023-07-02T08:29:12;9.93;;;6.47;;
37131;SDS011;23035;50.032;21.978;2023-07-02T08:34:16;8.40;;;5.60;;
37131;SDS011;23035;50.032;21.978;2023-07-02T08:39:20;10.60;;;5.73;;
37131;SDS011;23035;50.032;21.978;2023-07-02T08:44:26;6.85;;;5.35;;
37131;SDS011;23035;50.032;21.978;2023-07-02T08:49:30;8.07;;;5.90;;
37131;SDS011;23035;50.032;21.978;2023-07-02T08:54:34;9.37;;;6.63;;
37131;SDS011;23035;50.032;21.978;2023-07-02T08:59:39;13.33;;;6.80;;
37131;SDS011;23035;50.032;21.978;2023-07-02T09:04:43;8.75;;;6.72;;
37131;SDS011;23035;50.032;21.978;2023-07-02T09:09:48;7.80;;;6.00;;
37131;SDS011;23035;50.032;21.978;2023-07-02T09:14:58;9.98;;;6.25;;
37131;SDS011;23035;50.032;21.978;2023-07-02T09:20:03;10.13;;;6.15;;
37131;SDS011;23035;50.032;21.978;2023-07-02T09:25:11;8.70;;;6.20;;
37131;SDS011;23035;50.032;21.978;2023-07-02T09:30:17;10.85;;;7.18;;
37131;SDS011;23035;50.032;21.978;2023-07-02T09:35:21;8.75;;;6.65;;
37131;SDS011;23035;50.032;21.978;2023-07-02T09:40:26;10.43;;;6.70;;
37131;SDS011;23035;50.032;21.978;2023-07-02T09:45:32;15.68;;;7.05;;
37131;SDS011;23035;50.032;21.978;2023-07-02T09:50:36;7.88;;;6.53;;
37131;SDS011;23035;50.032;21.978;2023-07-02T09:55:41;10.40;;;7.05;;
37131;SDS011;23035;50.032;21.978;2023-07-02T10:00:48;8.27;;;6.47;;
37131;SDS011;23035;50.032;21.978;2023-07-02T10:06:01;8.90;;;6.63;;
37131;SDS011;23035;50.032;21.978;2023-07-02T10:11:10;9.43;;;6.90;;
37131;SDS011;23035;50.032;21.978;2023-07-02T10:16:16;10.80;;;6.85;;
37131;SDS011;23035;50.032;21.978;2023-07-02T10:21:22;13.38;;;7.63;;
37131;SDS011;23035;50.032;21.978;2023-07-02T10:26:27;10.52;;;6.40;;
37131;SDS011;23035;50.032;21.978;2023-07-02T10:31:32;11.23;;;5.88;;
37131;SDS011;23035;50.032;21.978;2023-07-02T10:36:37;11.48;;;5.60;;
37131;SDS011;23035;50.032;21.978;2023-07-02T10:41:41;9.15;;;5.78;;
37131;SDS011;23035;50.032;21.978;2023-07-02T10:46:47;9.18;;;5.05;;
37131;SDS011;23035;50.032;21.978;2023-07-02T10:51:57;11.43;;;6.00;;
37131;SDS011;23035;50.032;21.978;2023-07-02T10:57:02;6.43;;;5.25;;
37131;SDS011;23035;50.032;21.978;2023-07-02T11:02:08;10.32;;;5.90;;
37131;SDS011;23035;50.032;21.978;2023-07-02T11:07:13;9.48;;;5.43;;
37131;SDS011;23035;50.032;21.978;2023-07-02T11:12:18;8.55;;;5.30;;
37131;SDS011;23035;50.032;21.978;2023-07-02T11:17:31;7.90;;;5.47;;
37131;SDS011;23035;50.032;21.978;2023-07-02T11:22:37;8.55;;;4.72;;
37131;SDS011;23035;50.032;21.978;2023-07-02T11:27:42;7.20;;;5.20;;
37131;SDS011;23035;50.032;21.978;2023-07-02T11:32:52;11.63;;;5.40;;
37131;SDS011;23035;50.032;21.978;2023-07-02T11:37:59;7.10;;;5.43;;
37131;SDS011;23035;50.032;21.978;2023-07-02T11:43:04;10.23;;;5.35;;
37131;SDS011;23035;50.032;21.978;2023-07-02T11:48:12;8.73;;;5.78;;
37131;SDS011;23035;50.032;21.978;2023-07-02T11:53:19;7.18;;;5.45;;
37131;SDS011;23035;50.032;21.978;2023-07-02T11:58:23;11.30;;;5.20;;
37131;SDS011;23035;50.032;21.978;2023-07-02T12:03:31;11.25;;;5.45;;
37131;SDS011;23035;50.032;21.978;2023-07-02T12:08:35;14.90;;;5.80;;
37131;SDS011;23035;50.032;21.978;2023-07-02T12:13:39;7.73;;;5.03;;
37131;SDS011;23035;50.032;21.978;2023-07-02T12:18:47;13.65;;;5.80;;
37131;SDS011;23035;50.032;21.978;2023-07-02T12:23:52;10.35;;;5.05;;
37131;SDS011;23035;50.032;21.978;2023-07-02T12:28:56;9.43;;;4.97;;
37131;SDS011;23035;50.032;21.978;2023-07-02T12:34:01;7.53;;;4.07;;
37131;SDS011;23035;50.032;21.978;2023-07-02T12:39:05;8.02;;;4.57;;
37131;SDS011;23035;50.032;21.978;2023-07-02T12:44:11;8.00;;;5.03;;
37131;SDS011;23035;50.032;21.978;2023-07-02T12:49:17;7.73;;;4.93;;
37131;SDS011;23035;50.032;21.978;2023-07-02T12:54:22;9.35;;;5.47;;
37131;SDS011;23035;50.032;21.978;2023-07-02T12:59:26;9.35;;;5.05;;
37131;SDS011;23035;50.032;21.978;2023-07-02T13:04:31;9.63;;;5.23;;
37131;SDS011;23035;50.032;21.978;2023-07-02T13:09:36;8.70;;;4.60;;
37131;SDS011;23035;50.032;21.978;2023-07-02T13:14:40;11.87;;;4.67;;
37131;SDS011;23035;50.032;21.978;2023-07-02T13:19:46;10.88;;;4.72;;
37131;SDS011;23035;50.032;21.978;2023-07-02T13:24:51;9.15;;;4.15;;
37131;SDS011;23035;50.032;21.978;2023-07-02T13:29:55;8.50;;;4.40;;
37131;SDS011;23035;50.032;21.978;2023-07-02T13:35:01;10.32;;;4.90;;
37131;SDS011;23035;50.032;21.978;2023-07-02T13:40:06;9.52;;;4.50;;
37131;SDS011;23035;50.032;21.978;2023-07-02T13:45:15;5.38;;;3.88;;
37131;SDS011;23035;50.032;21.978;2023-07-02T13:50:21;10.30;;;4.60;;
37131;SDS011;23035;50.032;21.978;2023-07-02T13:55:26;7.28;;;4.05;;
37131;SDS011;23035;50.032;21.978;2023-07-02T14:00:33;4.97;;;4.20;;
37131;SDS011;23035;50.032;21.978;2023-07-02T14:05:37;6.88;;;4.40;;
37131;SDS011;23035;50.032;21.978;2023-07-02T14:10:46;6.13;;;3.85;;
37131;SDS011;23035;50.032;21.978;2023-07-02T14:15:58;7.72;;;3.90;;
37131;SDS011;23035;50.032;21.978;2023-07-02T14:21:05;6.70;;;4.22;;
37131;SDS011;23035;50.032;21.978;2023-07-02T14:26:12;7.97;;;4.18;;
37131;SDS011;23035;50.032;21.978;2023-07-02T14:31:23;5.28;;;3.70;;
37131;SDS011;23035;50.032;21.978;2023-07-02T14:36:28;11.52;;;3.75;;
37131;SDS011;23035;50.032;21.978;2023-07-02T14:41:33;6.83;;;4.30;;
37131;SDS011;23035;50.032;21.978;2023-07-02T14:51:49;6.80;;;3.15;;
37131;SDS011;23035;50.032;21.978;2023-07-02T14:56:53;5.47;;;3.03;;
37131;SDS011;23035;50.032;21.978;2023-07-02T15:01:58;4.22;;;2.88;;
37131;SDS011;23035;50.032;21.978;2023-07-02T15:07:03;4.28;;;2.78;;
37131;SDS011;23035;50.032;21.978;2023-07-02T15:12:07;3.55;;;2.63;;
37131;SDS011;23035;50.032;21.978;2023-07-02T15:17:14;3.00;;;2.45;;
37131;SDS011;23035;50.032;21.978;2023-07-02T15:22:18;4.10;;;2.55;;
37131;SDS011;23035;50.032;21.978;2023-07-02T15:27:23;4.53;;;2.42;;
37131;SDS011;23035;50.032;21.978;2023-07-02T15:32:28;4.05;;;2.60;;
37131;SDS011;23035;50.032;21.978;2023-07-02T15:37:32;3.92;;;2.92;;
37131;SDS011;23035;50.032;21.978;2023-07-02T15:42:36;6.43;;;2.80;;
37131;SDS011;23035;50.032;21.978;2023-07-02T15:47:42;5.77;;;3.20;;
37131;SDS011;23035;50.032;21.978;2023-07-02T15:52:47;4.97;;;3.22;;
37131;SDS011;23035;50.032;21.978;2023-07-02T15:57:53;2.88;;;2.42;;
37131;SDS011;23035;50.032;21.978;2023-07-02T16:02:59;4.63;;;2.90;;
37131;SDS011;23035;50.032;21.978;2023-07-02T16:08:04;3.45;;;2.90;;
37131;SDS011;23035;50.032;21.978;2023-07-02T16:13:08;4.20;;;2.57;;
37131;SDS011;23035;50.032;21.978;2023-07-02T16:18:14;4.88;;;3.00;;
37131;SDS011;23035;50.032;21.978;2023-07-02T16:23:18;4.80;;;2.50;;
37131;SDS011;23035;50.032;21.978;2023-07-02T16:28:22;3.85;;;2.60;;
37131;SDS011;23035;50.032;21.978;2023-07-02T16:33:28;3.63;;;2.50;;
37131;SDS011;23035;50.032;21.978;2023-07-02T16:38:36;4.18;;;2.65;;
37131;SDS011;23035;50.032;21.978;2023-07-02T16:43:41;6.30;;;2.63;;
37131;SDS011;23035;50.032;21.978;2023-07-02T16:48:47;3.22;;;2.35;;
37131;SDS011;23035;50.032;21.978;2023-07-02T16:53:51;3.58;;;2.30;;
37131;SDS011;23035;50.032;21.978;2023-07-02T16:58:57;4.43;;;2.20;;
37131;SDS011;23035;50.032;21.978;2023-07-02T17:04:03;6.60;;;2.53;;
37131;SDS011;23035;50.032;21.978;2023-07-02T17:09:23;3.65;;;1.70;;
37131;SDS011;23035;50.032;21.978;2023-07-02T17:14:33;4.78;;;2.00;;
37131;SDS011;23035;50.032;21.978;2023-07-02T17:19:41;3.13;;;1.90;;
37131;SDS011;23035;50.032;21.978;2023-07-02T17:24:47;5.95;;;1.90;;
37131;SDS011;23035;50.032;21.978;2023-07-02T17:29:53;2.25;;;1.80;;
37131;SDS011;23035;50.032;21.978;2023-07-02T17:35:01;7.10;;;1.85;;
37131;SDS011;23035;50.032;21.978;2023-07-02T17:40:06;2.47;;;1.90;;
37131;SDS011;23035;50.032;21.978;2023-07-02T17:45:11;5.28;;;2.20;;
37131;SDS011;23035;50.032;21.978;2023-07-02T17:50:17;2.37;;;1.80;;
37131;SDS011;23035;50.032;21.978;2023-07-02T17:55:22;4.07;;;1.85;;
37131;SDS011;23035;50.032;21.978;2023-07-02T18:00:26;5.82;;;2.13;;
37131;SDS011;23035;50.032;21.978;2023-07-02T18:05:36;3.90;;;1.95;;
37131;SDS011;23035;50.032;21.978;2023-07-02T18:10:45;4.15;;;2.22;;
37131;SDS011;23035;50.032;21.978;2023-07-02T18:15:50;4.40;;;1.90;;
37131;SDS011;23035;50.032;21.978;2023-07-02T18:20:57;2.85;;;1.80;;
37131;SDS011;23035;50.032;21.978;2023-07-02T18:26:01;2.65;;;1.88;;
37131;SDS011;23035;50.032;21.978;2023-07-02T18:31:07;2.33;;;1.88;;
37131;SDS011;23035;50.032;21.978;2023-07-02T18:41:18;2.88;;;2.40;;
37131;SDS011;23035;50.032;21.978;2023-07-02T18:46:23;2.58;;;1.83;;
37131;SDS011;23035;50.032;21.978;2023-07-02T18:51:29;2.05;;;1.70;;
37131;SDS011;23035;50.032;21.978;2023-07-02T18:56:34;4.47;;;2.28;;
37131;SDS011;23035;50.032;21.978;2023-07-02T19:01:38;3.90;;;1.90;;
37131;SDS011;23035;50.032;21.978;2023-07-02T19:06:44;2.45;;;2.08;;
37131;SDS011;23035;50.032;21.978;2023-07-02T19:11:48;2.22;;;1.88;;
37131;SDS011;23035;50.032;21.978;2023-07-02T19:16:53;2.88;;;1.80;;
37131;SDS011;23035;50.032;21.978;2023-07-02T19:21:58;4.85;;;1.98;;
37131;SDS011;23035;50.032;21.978;2023-07-02T19:32:07;4.25;;;1.80;;
37131;SDS011;23035;50.032;21.978;2023-07-02T19:37:13;3.17;;;2.00;;
37131;SDS011;23035;50.032;21.978;2023-07-02T19:42:17;3.20;;;1.98;;
37131;SDS011;23035;50.032;21.978;2023-07-02T19:47:25;3.03;;;1.73;;
37131;SDS011;23035;50.032;21.978;2023-07-02T19:52:32;2.78;;;1.85;;
37131;SDS011;23035;50.032;21.978;2023-07-02T19:57:36;4.05;;;1.85;;
37131;SDS011;23035;50.032;21.978;2023-07-02T20:02:41;3.42;;;1.85;;
37131;SDS011;23035;50.032;21.978;2023-07-02T20:07:48;2.53;;;2.13;;
37131;SDS011;23035;50.032;21.978;2023-07-02T20:17:56;3.20;;;2.20;;
37131;SDS011;23035;50.032;21.978;2023-07-02T20:23:02;2.42;;;2.10;;
37131;SDS011;23035;50.032;21.978;2023-07-02T20:33:10;2.90;;;2.15;;
37131;SDS011;23035;50.032;21.978;2023-07-02T20:38:16;9.85;;;2.15;;
37131;SDS011;23035;50.032;21.978;2023-07-02T20:43:20;2.60;;;2.03;;
37131;SDS011;23035;50.032;21.978;2023-07-02T20:48:24;6.22;;;2.35;;
37131;SDS011;23035;50.032;21.978;2023-07-02T20:53:31;2.53;;;2.33;;
37131;SDS011;23035;50.032;21.978;2023-07-02T20:58:36;2.47;;;2.28;;
37131;SDS011;23035;50.032;21.978;2023-07-02T21:03:39;2.30;;;2.10;;
37131;SDS011;23035;50.032;21.978;2023-07-02T21:08:45;3.78;;;2.60;;
37131;SDS011;23035;50.032;21.978;2023-07-02T21:13:49;3.58;;;2.40;;
37131;SDS011;23035;50.032;21.978;2023-07-02T21:18:53;3.53;;;2.22;;
37131;SDS011;23035;50.032;21.978;2023-07-02T21:23:58;3.95;;;2.60;;
37131;SDS011;23035;50.032;21.978;2023-07-02T21:29:02;6.38;;;2.50;;
37131;SDS011;23035;50.032;21.978;2023-07-02T21:34:06;11.27;;;2.63;;
37131;SDS011;23035;50.032;21.978;2023-07-02T21:39:12;2.95;;;2.30;;
37131;SDS011;23035;50.032;21.978;2023-07-02T21:44:15;6.28;;;2.97;;
37131;SDS011;23035;50.032;21.978;2023-07-02T21:49:20;7.40;;;2.90;;
37131;SDS011;23035;50.032;21.978;2023-07-02T21:54:25;6.82;;;3.28;;
37131;SDS011;23035;50.032;21.978;2023-07-02T21:59:30;7.15;;;3.60;;
37131;SDS011;23035;50.032;21.978;2023-07-02T22:04:34;4.85;;;3.10;;
37131;SDS011;23035;50.032;21.978;2023-07-02T22:09:39;5.82;;;2.92;;
37131;SDS011;23035;50.032;21.978;2023-07-02T22:14:43;7.30;;;3.20;;
37131;SDS011;23035;50.032;21.978;2023-07-02T22:19:47;4.00;;;3.10;;
37131;SDS011;23035;50.032;21.978;2023-07-02T22:24:52;5.10;;;2.72;;
37131;SDS011;23035;50.032;21.978;2023-07-02T22:29:56;4.85;;;2.95;;
37131;SDS011;23035;50.032;21.978;2023-07-02T22:35:01;5.35;;;2.80;;
37131;SDS011;23035;50.032;21.978;2023-07-02T22:40:08;5.93;;;2.87;;
37131;SDS011;23035;50.032;21.978;2023-07-02T22:45:14;4.43;;;2.75;;
37131;SDS011;23035;50.032;21.978;2023-07-02T22:50:19;4.13;;;2.67;;
37131;SDS011;23035;50.032;21.978;2023-07-02T22:55:26;3.55;;;2.50;;
37131;SDS011;23035;50.032;21.978;2023-07-02T23:00:31;5.93;;;2.70;;
37131;SDS011;23035;50.032;21.978;2023-07-02T23:05:35;4.10;;;2.58;;
37131;SDS011;23035;50.032;21.978;2023-07-02T23:10:40;6.45;;;2.75;;
37131;SDS011;23035;50.032;21.978;2023-07-02T23:15:44;5.40;;;2.88;;
37131;SDS011;23035;50.032;21.978;2023-07-02T23:20:48;5.70;;;2.85;;
37131;SDS011;23035;50.032;21.978;2023-07-02T23:25:57;5.93;;;3.05;;
37131;SDS011;23035;50.032;21.978;2023-07-02T23:36:07;5.85;;;3.00;;
37131;SDS011;23035;50.032;21.978;2023-07-02T23:41:15;4.00;;;2.67;;
37131;SDS011;23035;50.032;21.978;2023-07-02T23:51:24;8.23;;;3.03;;
37131;SDS011;23035;50.032;21.978;2023-07-02T23:56:29;6.13;;;3.10;;
